Time;durP1;ratioP1;P1;durP2;ratioP2;P2;SDS_P1;SDS_P2;PMS_P1;PMS_P2;Temp;Humidity;BMP_temperature;BMP_pressure;BME280_temperature;BME280_humidity;BME280_pressure;Samples;Min_cycle;Max_cycle;Signal;HPM_P1;HPM_P2
2023/03/15 00:01:14;;;;;;;2.88;1.10;;;;;;;1.28;100.00;100935.53;4905904;29;20058;-75
2023/03/15 00:03:41;;;;;;;1.65;0.60;;;;;;;1.25;100.00;100937.31;4901469;29;20063;-74
2023/03/15 00:06:06;;;;;;;2.28;0.98;;;;;;;1.21;100.00;100950.34;4892872;29;20048;-74
2023/03/15 00:08:32;;;;;;;2.47;1.15;;;;;;;1.16;100.00;100949.53;4912553;28;20047;-74
2023/03/15 00:10:58;;;;;;;2.30;0.70;;;;;;;1.14;100.00;100959.06;4912940;29;20040;-74
2023/03/15 00:13:24;;;;;;;5.63;1.00;;;;;;;1.12;100.00;100960.81;4891635;29;21870;-74
2023/03/15 00:15:52;;;;;;;1.25;0.75;;;;;;;1.10;100.00;100961.69;4907006;29;20058;-74
2023/03/15 00:18:19;;;;;;;1.08;0.90;;;;;;;1.08;100.00;100965.19;4906891;29;20113;-74
2023/03/15 00:20:46;;;;;;;4.72;1.20;;;;;;;1.07;100.00;100967.78;4906735;29;20110;-74
2023/03/15 00:23:11;;;;;;;3.00;0.80;;;;;;;1.06;100.00;100968.66;4910920;29;20039;-74
2023/03/15 00:25:37;;;;;;;1.48;0.80;;;;;;;1.05;100.00;100970.41;4909213;29;20545;-74
2023/03/15 00:28:02;;;;;;;3.40;0.88;;;;;;;1.01;100.00;100978.25;4911836;29;22246;-74
2023/03/15 00:30:28;;;;;;;2.80;0.85;;;;;;;0.95;100.00;100981.75;4906701;29;20123;-74
2023/03/15 00:32:54;;;;;;;8.35;1.15;;;;;;;0.96;100.00;100993.06;4893105;29;20180;-74
2023/03/15 00:35:20;;;;;;;1.67;0.85;;;;;;;0.93;100.00;100992.19;4911014;28;20122;-74
2023/03/15 00:37:46;;;;;;;1.40;0.73;;;;;;;0.91;100.00;100995.66;4907056;29;20070;-74
2023/03/15 00:40:12;;;;;;;1.33;0.80;;;;;;;0.89;100.00;101006.13;4879564;29;20070;-74
2023/03/15 00:42:38;;;;;;;3.92;0.85;;;;;;;0.88;100.00;101008.72;4909660;29;20048;-75
2023/03/15 00:45:04;;;;;;;1.00;0.73;;;;;;;0.85;100.00;101009.59;4911094;29;20050;-74
2023/03/15 00:47:30;;;;;;;3.95;1.60;;;;;;;0.81;100.00;101018.28;4909573;29;20064;-74
2023/03/15 00:49:55;;;;;;;0.90;0.70;;;;;;;0.79;100.00;101015.69;4907757;28;20039;-74
2023/03/15 00:52:21;;;;;;;0.65;0.65;;;;;;;0.78;100.00;101013.09;4914032;29;20047;-74
2023/03/15 00:54:51;;;;;;;0.82;0.77;;;;;;;0.73;100.00;101010.50;4913477;28;20079;-74
2023/03/15 00:57:17;;;;;;;1.60;0.80;;;;;;;0.70;100.00;101026.13;4909070;28;21996;-74
2023/03/15 00:59:43;;;;;;;3.60;0.85;;;;;;;0.67;100.00;101021.78;4917083;29;20051;-74
2023/03/15 01:02:09;;;;;;;2.25;0.75;;;;;;;0.65;100.00;101030.50;4916831;29;20439;-74
2023/03/15 01:04:35;;;;;;;2.25;0.70;;;;;;;0.61;100.00;101032.19;4928842;28;20056;-74
2023/03/15 01:07:01;;;;;;;2.05;0.93;;;;;;;0.58;100.00;101039.16;4911724;28;20047;-74
2023/03/15 01:09:27;;;;;;;1.55;0.80;;;;;;;0.54;100.00;101040.91;4914797;29;20059;-74
2023/03/15 01:11:52;;;;;;;5.25;1.00;;;;;;;0.49;100.00;101047.88;4914897;29;20047;-74
2023/03/15 01:14:17;;;;;;;2.55;1.00;;;;;;;0.44;100.00;101049.59;4916452;29;20043;-75
2023/03/15 01:16:44;;;;;;;2.50;0.95;;;;;;;0.39;100.00;101063.47;4897415;29;20423;-75
2023/03/15 01:19:11;;;;;;;3.08;0.85;;;;;;;0.42;100.00;101085.22;4913861;28;20074;-74
2023/03/15 01:21:36;;;;;;;2.50;0.88;;;;;;;0.50;100.00;101093.91;4898758;29;20144;-74
2023/03/15 01:24:02;;;;;;;6.57;1.20;;;;;;;0.57;100.00;101102.56;4912066;29;20058;-75
2023/03/15 01:26:27;;;;;;;1.00;0.90;;;;;;;0.62;100.00;101101.72;4913515;29;20052;-75
2023/03/15 01:28:54;;;;;;;2.42;0.75;;;;;;;0.70;100.00;101103.47;4911204;29;20051;-74
2023/03/15 01:31:24;;;;;;;1.38;0.90;;;;;;;0.75;100.00;101096.47;4910450;29;20047;-75
2023/03/15 01:33:50;;;;;;;2.28;1.10;;;;;;;0.78;100.00;101112.13;4915819;29;20040;-74
2023/03/15 01:36:16;;;;;;;1.92;0.90;;;;;;;0.81;100.00;101118.22;4915048;29;20529;-75
2023/03/15 01:38:41;;;;;;;5.70;1.30;;;;;;;0.78;100.00;101125.16;4908771;29;20051;-74
2023/03/15 01:41:08;;;;;;;2.67;0.70;;;;;;;0.73;100.00;101121.69;4908367;29;20047;-75
2023/03/15 01:43:33;;;;;;;1.95;0.80;;;;;;;0.69;100.00;101140.81;4913516;29;20055;-74
2023/03/15 01:46:04;;;;;;;2.17;0.82;;;;;;;0.65;100.00;101129.53;4912666;29;20495;-75
2023/03/15 01:48:39;;;;;;;1.08;0.70;;;;;;;0.64;100.00;101144.28;4894969;29;20054;-74
2023/03/15 01:51:12;;;;;;;1.02;0.60;;;;;;;0.63;100.00;101139.94;4909059;28;20130;-74
2023/03/15 01:53:40;;;;;;;0.60;0.60;;;;;;;0.64;100.00;101132.97;4911642;28;20301;-75
2023/03/15 01:56:07;;;;;;;2.95;0.82;;;;;;;0.62;100.00;101127.78;4907884;29;20548;-75
2023/03/15 01:58:34;;;;;;;3.60;0.98;;;;;;;0.63;100.00;101134.72;4908941;29;20708;-74
2023/03/15 02:01:00;;;;;;;3.22;1.00;;;;;;;0.63;100.00;101129.53;4912221;29;20051;-74
2023/03/15 02:03:45;;;;;;;2.15;0.60;;;;;;;0.64;100.00;101131.25;4924586;28;20139;-75
2023/03/15 02:06:16;;;;;;;3.47;0.90;;;;;;;0.65;100.00;101135.59;4895080;29;20058;-75
2023/03/15 02:09:04;;;;;;;1.83;0.82;;;;;;;0.65;100.00;101132.97;4913002;29;20051;-75
2023/03/15 02:11:29;;;;;;;2.65;0.80;;;;;;;0.63;100.00;101134.72;4895700;29;20035;-74
2023/03/15 02:13:55;;;;;;;2.10;0.82;;;;;;;0.63;100.00;101144.28;4914116;29;20078;-75
2023/03/15 02:16:22;;;;;;;3.05;0.95;;;;;;;0.61;100.00;101135.59;4879818;29;20055;-75
2023/03/15 02:18:55;;;;;;;2.20;0.88;;;;;;;0.58;100.00;101141.66;4908121;29;20048;-73
2023/03/15 02:21:27;;;;;;;4.60;1.00;;;;;;;0.59;100.00;101139.94;4910469;29;20059;-73
2023/03/15 02:24:15;;;;;;;2.03;0.70;;;;;;;0.55;100.00;101141.69;4908230;29;20110;-75
2023/03/15 02:26:43;;;;;;;0.57;0.52;;;;;;;0.52;100.00;101139.94;4910562;29;20047;-73
2023/03/15 02:29:09;;;;;;;1.30;0.68;;;;;;;0.50;100.00;101149.47;4909406;29;20051;-73
2023/03/15 02:31:36;;;;;;;2.03;0.82;;;;;;;0.46;100.00;101141.66;4914410;29;20168;-74
2023/03/15 02:34:03;;;;;;;0.65;0.65;;;;;;;0.43;100.00;101145.13;4909224;29;20489;-74
2023/03/15 02:36:30;;;;;;;1.00;0.55;;;;;;;0.42;100.00;101155.56;4906773;29;20710;-74
2023/03/15 02:38:56;;;;;;;1.60;0.80;;;;;;;0.38;100.00;101155.53;4910856;29;20043;-73
2023/03/15 02:41:32;;;;;;;3.13;0.77;;;;;;;0.34;100.00;101161.63;4909849;28;20047;-73
2023/03/15 02:44:04;;;;;;;1.77;0.80;;;;;;;0.30;100.00;101161.59;4893793;29;20583;-75
2023/03/15 02:46:30;;;;;;;2.85;0.90;;;;;;;0.27;100.00;101167.66;4903046;29;20426;-73
2023/03/15 02:48:56;;;;;;;0.80;0.80;;;;;;;0.22;100.00;101170.25;4906306;29;20047;-73
2023/03/15 02:51:27;;;;;;;0.70;0.70;;;;;;;0.18;100.00;101180.66;4903179;29;20514;-73
2023/03/15 02:53:53;;;;;;;1.63;0.70;;;;;;;0.15;100.00;101186.72;4909990;29;20094;-73
2023/03/15 02:56:18;;;;;;;2.83;0.93;;;;;;;0.13;100.00;101197.13;4907940;29;20044;-73
2023/03/15 02:58:46;;;;;;;3.70;1.00;;;;;;;0.11;100.00;101196.25;4907065;28;20051;-73
2023/03/15 03:01:13;;;;;;;1.40;0.80;;;;;;;0.07;100.00;101204.94;4894066;29;20432;-74
2023/03/15 03:03:43;;;;;;;3.22;0.65;;;;;;;0.06;100.00;101210.13;4898015;29;20099;-73
2023/03/15 03:06:10;;;;;;;1.63;0.82;;;;;;;0.06;100.00;101221.41;4886003;29;20412;-73
2023/03/15 03:08:36;;;;;;;1.00;0.80;;;;;;;0.06;100.00;101218.81;4902435;29;20051;-74
2023/03/15 03:11:02;;;;;;;2.08;0.60;;;;;;;0.08;100.00;101227.50;4910484;29;20059;-75
2023/03/15 03:13:28;;;;;;;1.27;1.15;;;;;;;0.09;100.00;101237.06;4911394;29;20415;-74
2023/03/15 03:15:57;;;;;;;0.68;0.60;;;;;;;0.11;100.00;101250.94;4903600;29;20118;-73
2023/03/15 03:18:27;;;;;;;1.73;0.80;;;;;;;0.13;100.00;101233.59;4910022;29;20039;-73
2023/03/15 03:20:57;;;;;;;3.03;1.00;;;;;;;0.16;100.00;101243.16;4908504;29;20047;-74
2023/03/15 03:23:26;;;;;;;2.20;0.98;;;;;;;0.17;100.00;101244.03;4910739;29;20556;-75
2023/03/15 03:25:55;;;;;;;0.80;0.70;;;;;;;0.16;100.00;101247.50;4907137;28;20134;-72
2023/03/15 03:28:23;;;;;;;4.80;1.42;;;;;;;0.17;100.00;101259.66;4909232;29;20168;-75
2023/03/15 03:30:49;;;;;;;1.35;0.80;;;;;;;0.16;100.00;101261.38;4907935;29;20058;-73
2023/03/15 03:33:14;;;;;;;2.08;1.08;;;;;;;0.17;100.00;101270.06;4910353;28;20039;-76
2023/03/15 03:35:40;;;;;;;2.25;0.93;;;;;;;0.16;100.00;101278.75;4920499;28;20177;-75
2023/03/15 03:38:06;;;;;;;3.92;1.02;;;;;;;0.15;100.00;101283.09;4921966;28;21687;-75
2023/03/15 03:40:32;;;;;;;1.27;0.73;;;;;;;0.13;100.00;101285.66;4890733;29;20051;-76
2023/03/15 03:42:57;;;;;;;1.00;0.90;;;;;;;0.11;100.00;101292.63;4909626;28;20192;-75
2023/03/15 03:45:23;;;;;;;5.38;0.90;;;;;;;0.10;100.00;101301.28;4910089;29;20043;-75
2023/03/15 03:47:50;;;;;;;2.40;0.65;;;;;;;0.06;100.00;101302.13;4925474;28;20043;-75
2023/03/15 03:50:16;;;;;;;2.15;0.68;;;;;;;0.03;100.00;101309.06;4910641;29;20039;-75
2023/03/15 03:52:44;;;;;;;1.42;0.90;;;;;;;-0.01;100.00;101309.03;4904951;28;20158;-76
2023/03/15 03:55:15;;;;;;;2.85;0.70;;;;;;;-0.03;100.00;101308.19;4904367;29;20055;-75
2023/03/15 03:57:41;;;;;;;1.17;0.82;;;;;;;-0.04;100.00;101308.16;4893645;29;20048;-73
2023/03/15 04:00:10;;;;;;;1.98;0.70;;;;;;;-0.05;100.00;101316.84;4886359;29;20707;-75
2023/03/15 04:02:36;;;;;;;4.32;1.08;;;;;;;-0.06;100.00;101317.69;4890091;28;20065;-75
2023/03/15 04:05:01;;;;;;;1.45;0.75;;;;;;;-0.07;100.00;101315.94;4904141;29;20051;-75
2023/03/15 04:07:27;;;;;;;1.58;0.90;;;;;;;-0.08;100.00;101316.78;4902310;28;20142;-75
2023/03/15 04:09:52;;;;;;;2.70;0.85;;;;;;;-0.07;100.00;101323.75;4918671;28;20138;-75
2023/03/15 04:12:18;;;;;;;1.50;0.90;;;;;;;-0.07;100.00;101334.16;4907870;28;20070;-75
2023/03/15 04:14:44;;;;;;;1.75;1.30;;;;;;;-0.08;100.00;101333.31;4903976;29;20419;-75
2023/03/15 04:17:09;;;;;;;3.13;0.90;;;;;;;-0.10;100.00;101336.75;4901873;28;20408;-75
2023/03/15 04:19:35;;;;;;;3.08;0.93;;;;;;;-0.11;100.00;101337.63;4905280;29;20050;-75
2023/03/15 04:22:05;;;;;;;5.65;0.90;;;;;;;-0.11;100.00;101343.69;4918643;28;20051;-75
2023/03/15 04:24:35;;;;;;;3.53;0.82;;;;;;;-0.10;100.00;101352.38;4901891;29;20074;-75
2023/03/15 04:27:00;;;;;;;2.78;1.15;;;;;;;-0.10;100.00;101357.59;4899684;28;20554;-75
2023/03/15 04:29:26;;;;;;;1.88;1.27;;;;;;;-0.08;100.00;101363.66;4909100;28;20052;-75
2023/03/15 04:31:51;;;;;;;3.33;0.93;;;;;;;-0.06;100.00;101355.00;4892068;29;20047;-75
2023/03/15 04:34:17;;;;;;;2.50;1.00;;;;;;;-0.04;100.00;101361.09;4888924;29;21102;-75
2023/03/15 04:36:42;;;;;;;3.38;0.90;;;;;;;-0.04;100.00;101368.03;4904657;29;20048;-75
2023/03/15 04:39:08;;;;;;;2.58;0.75;;;;;;;-0.03;100.00;101361.97;4911381;29;20185;-75
2023/03/15 04:41:34;;;;;;;1.85;0.80;;;;;;;-0.04;100.00;101376.69;4906638;29;20048;-75
2023/03/15 04:44:03;;;;;;;3.80;0.75;;;;;;;-0.04;100.00;101373.25;4913114;29;21681;-75
2023/03/15 04:46:30;;;;;;;1.15;0.90;;;;;;;-0.03;100.00;101377.59;4888759;29;20205;-75
2023/03/15 04:48:56;;;;;;;1.63;0.70;;;;;;;-0.03;100.00;101382.78;4920859;28;20103;-75
2023/03/15 04:51:22;;;;;;;2.55;0.77;;;;;;;-0.05;100.00;101380.16;4909558;29;20059;-75
2023/03/15 04:53:47;;;;;;;3.78;0.80;;;;;;;-0.05;100.00;101382.78;4906526;29;20051;-75
2023/03/15 04:56:12;;;;;;;0.90;0.65;;;;;;;-0.05;100.00;101377.56;4909505;29;20051;-75
2023/03/15 04:58:38;;;;;;;0.93;0.80;;;;;;;-0.07;100.00;101381.91;4915174;29;20175;-75
2023/03/15 05:01:03;;;;;;;0.80;0.77;;;;;;;-0.08;100.00;101384.47;4915016;29;20051;-75
2023/03/15 05:03:30;;;;;;;1.00;1.00;;;;;;;-0.09;100.00;101387.94;4913990;29;20635;-75
2023/03/15 05:05:55;;;;;;;2.47;0.93;;;;;;;-0.12;100.00;101388.78;4911519;29;20535;-75
2023/03/15 05:08:21;;;;;;;1.38;0.70;;;;;;;-0.12;100.00;101393.16;4907092;29;20067;-75
2023/03/15 05:10:47;;;;;;;2.25;0.90;;;;;;;-0.13;100.00;101396.63;4912891;29;20163;-75
2023/03/15 05:13:12;;;;;;;2.60;0.82;;;;;;;-0.14;100.00;101406.16;4913625;29;20056;-75
2023/03/15 05:15:38;;;;;;;1.45;0.93;;;;;;;-0.15;100.00;101410.47;4924100;28;20045;-74
2023/03/15 05:18:03;;;;;;;0.77;0.68;;;;;;;-0.16;100.00;101416.53;4912158;29;20047;-75
2023/03/15 05:20:29;;;;;;;2.55;0.85;;;;;;;-0.17;100.00;101416.50;4909603;29;20415;-75
2023/03/15 05:22:54;;;;;;;3.55;1.00;;;;;;;-0.18;100.00;101404.38;4913069;28;20052;-75
2023/03/15 05:25:19;;;;;;;1.50;0.80;;;;;;;-0.19;100.00;101411.31;4893950;29;20060;-75
2023/03/15 05:27:45;;;;;;;1.67;0.80;;;;;;;-0.20;100.00;101417.38;4920307;28;20098;-75
2023/03/15 05:30:11;;;;;;;2.33;1.10;;;;;;;-0.19;100.00;101419.13;4907076;29;20086;-75
2023/03/15 05:32:38;;;;;;;2.83;1.00;;;;;;;-0.20;100.00;101417.38;4906703;28;20066;-75
2023/03/15 05:35:06;;;;;;;1.90;1.10;;;;;;;-0.19;100.00;101419.13;4921715;28;20134;-75
2023/03/15 05:37:32;;;;;;;2.40;1.25;;;;;;;-0.18;100.00;101422.59;4901493;29;20035;-75
2023/03/15 05:39:59;;;;;;;5.43;1.35;;;;;;;-0.21;100.00;101427.78;4905301;29;20039;-75
2023/03/15 05:42:25;;;;;;;4.20;1.25;;;;;;;-0.23;100.00;101426.91;4886007;29;20056;-75
2023/03/15 05:44:54;;;;;;;2.03;0.80;;;;;;;-0.27;100.00;101426.00;4907957;29;20048;-75
2023/03/15 05:47:20;;;;;;;2.72;1.20;;;;;;;-0.28;100.00;101422.50;4910608;29;20075;-75
2023/03/15 05:49:46;;;;;;;3.95;1.40;;;;;;;-0.28;100.00;101437.25;4893653;29;20138;-75
2023/03/15 05:52:11;;;;;;;1.65;0.90;;;;;;;-0.29;100.00;101438.09;4907176;29;20102;-75
2023/03/15 05:54:37;;;;;;;2.05;1.00;;;;;;;-0.30;100.00;101439.84;4889178;28;20119;-75
2023/03/15 05:57:03;;;;;;;2.10;1.08;;;;;;;-0.32;100.00;101436.34;4904945;28;20388;-75
2023/03/15 05:59:28;;;;;;;2.75;0.90;;;;;;;-0.32;100.00;101443.31;4907166;28;20056;-75
2023/03/15 06:01:54;;;;;;;4.35;1.10;;;;;;;-0.33;100.00;101451.97;4894064;29;20460;-75
2023/03/15 06:04:19;;;;;;;4.07;0.98;;;;;;;-0.35;100.00;101454.53;4905894;28;20364;-75
2023/03/15 06:06:45;;;;;;;1.90;0.80;;;;;;;-0.36;100.00;101457.13;4918632;28;20403;-74
2023/03/15 06:09:10;;;;;;;2.55;0.98;;;;;;;-0.37;100.00;101444.97;4889818;29;20060;-75
2023/03/15 06:11:36;;;;;;;2.20;1.27;;;;;;;-0.38;100.00;101456.25;4909594;29;20040;-75
2023/03/15 06:14:01;;;;;;;3.25;0.98;;;;;;;-0.39;100.00;101464.91;4902520;29;20122;-75
2023/03/15 06:16:27;;;;;;;4.00;0.80;;;;;;;-0.40;100.00;101468.38;4920648;28;20660;-75
2023/03/15 06:18:52;;;;;;;2.22;1.00;;;;;;;-0.40;100.00;101473.59;4904549;28;20048;-75
2023/03/15 06:21:18;;;;;;;4.72;1.35;;;;;;;-0.42;100.00;101478.75;4918023;28;20135;-75
2023/03/15 06:23:43;;;;;;;4.93;1.38;;;;;;;-0.42;100.00;101478.75;4904831;28;20048;-75
2023/03/15 06:26:09;;;;;;;1.90;1.00;;;;;;;-0.43;100.00;101485.69;4918717;28;21041;-75
2023/03/15 06:28:34;;;;;;;2.45;1.15;;;;;;;-0.45;100.00;101491.72;4887551;29;20083;-75
2023/03/15 06:31:07;;;;;;;3.55;1.08;;;;;;;-0.46;100.00;101498.69;4900526;28;20407;-75
2023/03/15 06:33:32;;;;;;;2.13;1.25;;;;;;;-0.48;100.00;101494.31;4919652;28;20052;-75
2023/03/15 06:35:58;;;;;;;3.75;1.20;;;;;;;-0.47;100.00;101502.13;4898712;29;20063;-75
2023/03/15 06:38:23;;;;;;;3.60;1.00;;;;;;;-0.47;100.00;101504.75;4906760;29;20051;-75
2023/03/15 06:40:49;;;;;;;4.68;1.20;;;;;;;-0.45;100.00;101517.75;4905863;28;20142;-75
2023/03/15 06:43:18;;;;;;;1.67;1.00;;;;;;;-0.43;100.00;101516.91;4898662;29;20058;-75
2023/03/15 06:45:45;;;;;;;3.95;1.73;;;;;;;-0.38;100.00;101526.50;4905093;28;20217;-75
2023/03/15 06:48:11;;;;;;;2.78;1.88;;;;;;;-0.34;100.00;101528.25;4883393;28;20511;-75
2023/03/15 06:50:36;;;;;;;2.58;1.65;;;;;;;-0.32;100.00;101531.78;4900970;29;21149;-74
2023/03/15 06:53:02;;;;;;;3.88;1.38;;;;;;;-0.29;100.00;101537.00;4911426;29;20165;-74
2023/03/15 06:55:27;;;;;;;4.88;1.55;;;;;;;-0.24;100.00;101540.53;4910170;29;20055;-74
2023/03/15 06:57:53;;;;;;;2.20;0.90;;;;;;;-0.16;100.00;101543.22;4905055;29;20067;-74
2023/03/15 07:00:18;;;;;;;3.63;1.20;;;;;;;-0.09;100.00;101546.75;4909915;29;20063;-74
2023/03/15 07:02:44;;;;;;;2.67;1.20;;;;;;;-0.02;100.00;101543.34;4912528;29;20068;-75
2023/03/15 07:05:09;;;;;;;2.42;1.30;;;;;;;0.04;100.00;101546.03;4911367;28;20058;-74
2023/03/15 07:07:35;;;;;;;3.05;1.25;;;;;;;0.12;100.00;101554.78;4905355;29;20052;-73
2023/03/15 07:10:01;;;;;;;5.05;1.10;;;;;;;0.26;100.00;101580.06;4911272;29;20051;-74
2023/03/15 07:12:26;;;;;;;2.45;0.95;;;;;;;0.40;100.00;101585.44;4892030;28;22340;-74
2023/03/15 07:14:52;;;;;;;4.50;1.10;;;;;;;0.50;100.00;101578.56;4909334;29;20057;-74
2023/03/15 07:17:17;;;;;;;2.67;0.90;;;;;;;0.57;100.00;101588.16;4911620;28;20095;-74
2023/03/15 07:19:43;;;;;;;1.23;1.08;;;;;;;0.58;100.00;101589.91;4912045;28;20688;-74
2023/03/15 07:22:08;;;;;;;1.92;1.05;;;;;;;0.59;100.00;101581.22;4908775;29;20736;-74
2023/03/15 07:24:34;;;;;;;3.22;1.08;;;;;;;0.62;100.00;101588.19;4909255;29;20055;-74
2023/03/15 07:26:59;;;;;;;2.78;0.98;;;;;;;0.63;100.00;101585.63;4908984;29;20496;-74
2023/03/15 07:29:24;;;;;;;1.85;1.00;;;;;;;0.63;100.00;101575.19;4907076;29;20130;-74
2023/03/15 07:31:50;;;;;;;2.17;1.00;;;;;;;0.64;100.00;101589.97;4904743;29;20055;-72
2023/03/15 07:34:16;;;;;;;3.45;1.00;;;;;;;0.63;100.00;101589.94;4905369;29;20151;-73
2023/03/15 07:36:41;;;;;;;4.28;1.00;;;;;;;0.64;100.00;101589.97;4892530;29;20099;-73
2023/03/15 07:39:07;;;;;;;3.85;1.00;;;;;;;0.66;100.00;101592.59;4901706;29;20668;-74
2023/03/15 07:41:32;;;;;;;1.67;0.85;;;;;;;0.69;100.00;101600.41;4910081;29;20697;-74
2023/03/15 07:43:57;;;;;;;1.20;1.02;;;;;;;0.74;100.00;101601.34;4921614;28;20637;-73
2023/03/15 07:46:23;;;;;;;3.22;1.17;;;;;;;0.80;100.00;101601.38;4909929;29;20138;-74
2023/03/15 07:48:48;;;;;;;1.65;0.95;;;;;;;0.86;100.00;101600.53;4909149;28;21163;-73
2023/03/15 07:51:14;;;;;;;3.28;1.25;;;;;;;0.91;100.00;101606.69;4904317;29;20149;-74
2023/03/15 07:53:39;;;;;;;2.15;1.08;;;;;;;0.97;100.00;101613.66;4885709;29;20579;-74
2023/03/15 07:56:05;;;;;;;3.95;0.98;;;;;;;1.00;100.00;101613.69;4901541;29;20295;-74
2023/03/15 07:58:30;;;;;;;3.47;0.98;;;;;;;1.06;100.00;101612.84;4899921;29;20713;-74
2023/03/15 08:00:56;;;;;;;1.35;0.80;;;;;;;1.11;100.00;101618.97;4901900;29;20579;-74
2023/03/15 08:03:23;;;;;;;0.70;0.70;;;;;;;1.17;100.00;101631.19;4899451;29;20092;-74
2023/03/15 08:05:49;;;;;;;2.60;0.70;;;;;;;1.21;100.00;101632.97;4875404;29;20047;-72
2023/03/15 08:08:15;;;;;;;0.95;0.70;;;;;;;1.25;100.00;101634.69;4892964;29;20059;-73
2023/03/15 08:10:42;;;;;;;3.85;1.00;;;;;;;1.33;100.00;101642.59;4899340;29;20066;-73
2023/03/15 08:13:07;;;;;;;2.22;0.88;;;;;;;1.40;100.00;101641.75;4885177;29;20135;-72
2023/03/15 08:15:33;;;;;;;1.60;1.08;;;;;;;1.47;100.00;101640.91;4902016;29;20048;-72
2023/03/15 08:17:59;;;;;;;1.67;0.95;;;;;;;1.54;100.00;101652.28;4905218;29;20036;-72
2023/03/15 08:20:24;;;;;;;2.47;1.00;;;;;;;1.61;100.00;101655.78;4908177;29;20052;-72
2023/03/15 08:22:50;;;;;;;3.42;1.00;;;;;;;1.65;100.00;101654.94;4883383;29;20412;-73
2023/03/15 08:25:19;;;;;;;1.75;0.70;;;;;;;1.72;100.00;101658.44;4902214;29;20935;-74
2023/03/15 08:27:44;;;;;;;0.90;0.73;;;;;;;1.76;100.00;101658.44;4905745;29;20047;-72
2023/03/15 08:30:12;;;;;;;1.23;0.90;;;;;;;1.84;100.00;101665.44;4905281;29;20056;-73
2023/03/15 08:32:45;;;;;;;1.75;0.90;;;;;;;1.93;100.00;101665.50;4884753;29;20127;-73
2023/03/15 08:35:11;;;;;;;;;;;;;;;2.01;100.00;101673.34;4906104;29;20062;-73
2023/03/15 08:37:37;;;;;;;1.20;0.77;;;;;;;2.06;100.00;101681.22;4905069;29;20042;-73
2023/03/15 08:40:10;;;;;;;1.08;0.88;;;;;;;2.13;100.00;101672.53;4903020;29;20131;-74
2023/03/15 08:42:37;;;;;;;3.55;0.80;;;;;;;2.19;100.00;101680.41;4902370;29;20265;-74
2023/03/15 08:45:05;;;;;;;1.23;0.70;;;;;;;2.26;100.00;101691.72;4917538;28;20051;-74
2023/03/15 08:47:34;;;;;;;2.88;0.93;;;;;;;2.37;100.00;101692.63;4902532;29;20077;-74
2023/03/15 08:50:04;;;;;;;0.90;0.70;;;;;;;2.45;100.00;101690.03;4903897;29;20048;-74
2023/03/15 08:52:30;;;;;;;2.60;0.98;;;;;;;2.56;100.00;101690.91;4900682;29;20589;-74
2023/03/15 08:54:55;;;;;;;2.83;1.27;;;;;;;2.66;100.00;101698.81;4887290;29;20039;-74
2023/03/15 08:57:24;;;;;;;3.08;0.80;;;;;;;2.74;100.00;101694.44;4905346;29;20058;-73
2023/03/15 08:59:53;;;;;;;0.82;0.70;;;;;;;2.83;100.00;101694.44;4905040;29;20051;-73
2023/03/15 09:02:18;;;;;;;3.17;1.10;;;;;;;2.93;100.00;101697.94;4904396;29;20047;-73
2023/03/15 09:04:44;;;;;;;1.95;0.82;;;;;;;3.01;100.00;101695.31;4901366;29;20062;-74
2023/03/15 09:07:11;;;;;;;3.05;0.80;;;;;;;3.11;100.00;101697.06;4900770;29;20066;-74
2023/03/15 09:09:37;;;;;;;3.30;1.02;;;;;;;3.24;100.00;101699.66;4897794;29;20054;-74
2023/03/15 09:12:03;;;;;;;2.42;1.05;;;;;;;3.31;100.00;101695.31;4915796;28;20062;-74
2023/03/15 09:14:28;;;;;;;3.58;1.05;;;;;;;3.37;100.00;101698.78;4898443;29;20623;-74
2023/03/15 09:16:54;;;;;;;3.17;0.98;;;;;;;3.45;100.00;101700.50;4902424;29;20358;-75
2023/03/15 09:19:20;;;;;;;3.85;0.90;;;;;;;3.50;100.00;101691.75;4909555;29;20758;-76
2023/03/15 09:21:46;;;;;;;2.10;0.75;;;;;;;3.56;100.00;101690.88;4885926;29;20510;-75
2023/03/15 09:24:12;;;;;;;2.58;1.10;;;;;;;3.61;100.00;101694.38;4883926;29;20686;-75
2023/03/15 09:26:37;;;;;;;4.55;1.60;;;;;;;3.67;100.00;101696.09;4920850;28;20171;-75
2023/03/15 09:29:03;;;;;;;5.10;1.52;;;;;;;3.74;100.00;101699.56;4904863;29;20048;-75
2023/03/15 09:31:30;;;;;;;4.78;1.33;;;;;;;3.84;100.00;101698.66;4901489;28;20698;-75
2023/03/15 09:33:57;;;;;;;3.22;1.20;;;;;;;3.92;100.00;101702.13;4900473;29;20113;-75
2023/03/15 09:36:23;;;;;;;2.95;1.00;;;;;;;4.04;100.00;101705.56;4904364;29;20036;-74
2023/03/15 09:38:48;;;;;;;2.13;1.23;;;;;;;4.13;100.00;101716.00;4906495;29;20047;-75
2023/03/15 09:41:20;;;;;;;1.10;0.90;;;;;;;4.20;100.00;101706.38;4905751;29;20047;-76
2023/03/15 09:44:06;;;;;;;3.47;1.00;;;;;;;4.32;100.00;101715.91;4907096;29;20846;-74
2023/03/15 09:46:37;;;;;;;2.75;1.08;;;;;;;4.45;100.00;101711.47;4872867;29;21035;-74
2023/03/15 09:49:08;;;;;;;3.47;1.00;;;;;;;4.60;100.00;101702.63;4887185;29;20303;-74
2023/03/15 09:51:50;;;;;;;2.25;0.90;;;;;;;4.71;100.00;101713.94;4901551;29;20134;-74
2023/03/15 09:54:19;;;;;;;2.05;1.02;;;;;;;4.70;100.00;101724.44;4907452;29;20107;-74
2023/03/15 09:57:09;;;;;;;3.28;0.90;;;;;;;4.59;100.00;101724.50;4903556;29;20055;-74
2023/03/15 09:59:38;;;;;;;3.10;1.00;;;;;;;4.51;100.00;101721.91;4907269;29;20770;-74
2023/03/15 10:02:30;;;;;;;3.80;1.10;;;;;;;4.47;100.00;101723.69;4903905;29;20055;-74
2023/03/15 10:05:00;;;;;;;2.42;0.80;;;;;;;4.48;100.00;101730.69;4888963;29;20043;-74
2023/03/15 10:07:26;;;;;;;3.70;0.80;;;;;;;4.45;100.00;101733.31;4904931;28;20086;-74
2023/03/15 10:09:51;;;;;;;2.83;1.05;;;;;;;4.43;100.00;101728.97;4907265;29;20031;-74
2023/03/15 10:12:28;;;;;;;1.70;0.98;;;;;;;4.47;100.00;101730.72;4902418;29;20178;-74
2023/03/15 10:15:12;;;;;;;3.47;0.98;;;;;;;4.49;100.00;101729.78;4896145;29;20135;-74
2023/03/15 10:17:41;;;;;;;3.05;1.15;;;;;;;4.48;100.00;101738.53;4904366;29;20062;-74
2023/03/15 10:20:17;;;;;;;2.63;0.80;;;;;;;4.54;100.00;101736.78;4887610;29;20392;-74
2023/03/15 10:22:55;;;;;;;3.50;1.00;;;;;;;4.51;100.00;101739.44;4901484;29;20047;-73
2023/03/15 10:25:29;;;;;;;4.53;1.17;;;;;;;4.42;100.00;101738.56;4886619;29;20059;-74
2023/03/15 10:28:02;;;;;;;1.33;1.05;;;;;;;4.43;99.07;101750.84;4908017;29;20089;-73
2023/03/15 10:30:34;;;;;;;3.08;1.00;;;;;;;4.53;100.00;101750.78;4902550;29;20058;-74
2023/03/15 10:33:04;;;;;;;1.38;0.90;;;;;;;4.57;100.00;101748.13;4895658;29;20690;-74
2023/03/15 10:35:30;;;;;;;3.17;1.15;;;;;;;4.65;100.00;101750.72;4899413;29;20051;-74
2023/03/15 10:37:57;;;;;;;1.73;0.65;;;;;;;4.79;100.00;101757.63;4896513;29;20616;-73
2023/03/15 10:40:41;;;;;;;4.55;1.20;;;;;;;4.85;98.75;101758.44;4902276;29;20594;-74
2023/03/15 10:43:20;;;;;;;4.78;1.20;;;;;;;4.88;100.00;101768.03;4905797;29;20134;-74
2023/03/15 10:45:58;;;;;;;5.18;1.50;;;;;;;4.89;97.93;101775.03;4906849;29;20047;-74
2023/03/15 10:48:24;;;;;;;1.38;0.80;;;;;;;4.92;96.37;101772.41;4898434;29;21719;-74
2023/03/15 10:50:50;;;;;;;3.90;1.05;;;;;;;4.92;98.33;101775.03;4905947;29;20039;-74
2023/03/15 10:53:20;;;;;;;7.40;1.30;;;;;;;4.93;100.00;101761.00;4887639;29;20395;-75
2023/03/15 10:55:47;;;;;;;2.75;1.10;;;;;;;4.98;100.00;101768.84;4903086;29;20737;-74
2023/03/15 10:58:16;;;;;;;4.18;1.65;;;;;;;5.02;100.00;101774.06;4899224;29;20043;-74
2023/03/15 11:00:52;;;;;;;4.10;1.13;;;;;;;5.07;95.73;101776.66;4904155;29;20043;-74
2023/03/15 11:03:20;;;;;;;5.72;1.20;;;;;;;5.14;98.52;101774.88;4894782;29;20063;-74
2023/03/15 11:05:54;;;;;;;2.25;0.73;;;;;;;5.20;98.58;101789.69;4894648;29;20611;-74
2023/03/15 11:08:23;;;;;;;5.53;1.17;;;;;;;5.19;100.00;101782.69;4882076;29;20059;-74
2023/03/15 11:10:59;;;;;;;5.63;1.55;;;;;;;5.25;97.12;101795.78;4906415;29;20064;-73
2023/03/15 11:13:26;;;;;;;4.03;1.20;;;;;;;5.23;96.37;101787.91;4886448;29;20051;-74
2023/03/15 11:16:00;;;;;;;3.13;1.05;;;;;;;5.21;99.15;101794.94;4906627;29;20143;-74
2023/03/15 11:18:45;;;;;;;7.20;1.10;;;;;;;5.23;94.88;101794.94;4909094;29;20044;-76
2023/03/15 11:21:13;;;;;;;4.15;1.35;;;;;;;5.30;92.31;101797.47;4907461;29;20058;-73
2023/03/15 11:23:42;;;;;;;4.45;1.25;;;;;;;5.35;90.90;101793.94;4904739;29;20048;-74
2023/03/15 11:26:16;;;;;;;3.10;1.58;;;;;;;5.37;88.05;101800.06;4915767;28;20167;-74